sensor_id;sensor_type;location;lat;lon;timestamp;temperature;humidity
44767;DHT22;30487;48.716;9.272;2023-12-20T00:02:13;6.40;99.90
44767;DHT22;30487;48.716;9.272;2023-12-20T00:04:39;6.40;99.90
44767;DHT22;30487;48.716;9.272;2023-12-20T00:07:04;6.40;99.90
44767;DHT22;30487;48.716;9.272;2023-12-20T00:09:30;6.40;99.90
44767;DHT22;30487;48.716;9.272;2023-12-20T00:11:56;6.40;99.90
44767;DHT22;30487;48.716;9.272;2023-12-20T00:14:22;6.40;99.90
44767;DHT22;30487;48.716;9.272;2023-12-20T00:16:47;6.40;99.90
44767;DHT22;30487;48.716;9.272;2023-12-20T00:19:13;6.40;99.90
44767;DHT22;30487;48.716;9.272;2023-12-20T00:21:38;6.40;99.90
44767;DHT22;30487;48.716;9.272;2023-12-20T00:24:05;6.40;99.90
44767;DHT22;30487;48.716;9.272;2023-12-20T00:26:30;6.40;99.90
44767;DHT22;30487;48.716;9.272;2023-12-20T00:28:56;6.50;99.90
44767;DHT22;30487;48.716;9.272;2023-12-20T00:31:21;6.40;99.90
44767;DHT22;30487;48.716;9.272;2023-12-20T00:33:47;6.50;99.90
44767;DHT22;30487;48.716;9.272;2023-12-20T00:36:13;6.50;99.90
44767;DHT22;30487;48.716;9.272;2023-12-20T00:38:38;6.50;99.90
44767;DHT22;30487;48.716;9.272;2023-12-20T00:41:04;6.50;99.90
44767;DHT22;30487;48.716;9.272;2023-12-20T00:43:29;6.50;99.90
44767;DHT22;30487;48.716;9.272;2023-12-20T00:45:55;6.50;99.90
44767;DHT22;30487;48.716;9.272;2023-12-20T00:48:21;6.60;99.90
44767;DHT22;30487;48.716;9.272;2023-12-20T00:50:46;6.60;99.90
44767;DHT22;30487;48.716;9.272;2023-12-20T00:53:12;6.60;99.90
44767;DHT22;30487;48.716;9.272;2023-12-20T00:55:37;6.50;99.90
44767;DHT22;30487;48.716;9.272;2023-12-20T00:58:03;6.50;99.90
44767;DHT22;30487;48.716;9.272;2023-12-20T01:00:29;6.60;99.90
44767;DHT22;30487;48.716;9.272;2023-12-20T01:02:54;6.50;99.90
44767;DHT22;30487;48.716;9.272;2023-12-20T01:05:20;6.40;99.90
44767;DHT22;30487;48.716;9.272;2023-12-20T01:07:48;6.40;99.90
44767;DHT22;30487;48.716;9.272;2023-12-20T01:10:14;6.40;99.90
44767;DHT22;30487;48.716;9.272;2023-12-20T01:12:40;6.40;99.90
44767;DHT22;30487;48.716;9.272;2023-12-20T01:15:06;6.40;99.90
44767;DHT22;30487;48.716;9.272;2023-12-20T01:17:31;6.40;99.90
44767;DHT22;30487;48.716;9.272;2023-12-20T01:19:57;6.40;99.90
44767;DHT22;30487;48.716;9.272;2023-12-20T01:22:23;6.30;99.90
44767;DHT22;30487;48.716;9.272;2023-12-20T01:24:49;6.30;99.90
44767;DHT22;30487;48.716;9.272;2023-12-20T01:27:14;6.30;99.90
44767;DHT22;30487;48.716;9.272;2023-12-20T01:29:40;6.30;99.90
44767;DHT22;30487;48.716;9.272;2023-12-20T01:32:06;6.20;99.90
44767;DHT22;30487;48.716;9.272;2023-12-20T01:34:31;6.20;99.90
44767;DHT22;30487;48.716;9.272;2023-12-20T01:36:57;6.20;99.90
44767;DHT22;30487;48.716;9.272;2023-12-20T01:39:23;6.20;99.90
44767;DHT22;30487;48.716;9.272;2023-12-20T01:41:48;6.20;99.90
44767;DHT22;30487;48.716;9.272;2023-12-20T01:44:14;6.20;99.90
44767;DHT22;30487;48.716;9.272;2023-12-20T01:46:40;6.20;99.90
44767;DHT22;30487;48.716;9.272;2023-12-20T01:49:06;6.10;99.90
44767;DHT22;30487;48.716;9.272;2023-12-20T01:51:32;6.20;99.90
44767;DHT22;30487;48.716;9.272;2023-12-20T01:53:59;6.20;99.90
44767;DHT22;30487;48.716;9.272;2023-12-20T01:56:26;6.20;99.90
44767;DHT22;30487;48.716;9.272;2023-12-20T01:58:53;6.10;99.90
44767;DHT22;30487;48.716;9.272;2023-12-20T02:01:19;6.10;99.90
44767;DHT22;30487;48.716;9.272;2023-12-20T02:03:45;6.10;99.90
44767;DHT22;30487;48.716;9.272;2023-12-20T02:06:11;6.10;99.90
44767;DHT22;30487;48.716;9.272;2023-12-20T02:08:36;6.10;99.90
44767;DHT22;30487;48.716;9.272;2023-12-20T02:11:02;6.00;99.90
44767;DHT22;30487;48.716;9.272;2023-12-20T02:13:28;6.00;99.90
44767;DHT22;30487;48.716;9.272;2023-12-20T02:15:54;6.00;99.90
44767;DHT22;30487;48.716;9.272;2023-12-20T02:18:20;6.00;99.90
44767;DHT22;30487;48.716;9.272;2023-12-20T02:20:46;6.00;99.90
44767;DHT22;30487;48.716;9.272;2023-12-20T02:23:11;6.00;99.90
44767;DHT22;30487;48.716;9.272;2023-12-20T02:25:37;6.00;99.90
44767;DHT22;30487;48.716;9.272;2023-12-20T02:28:03;6.00;99.90
44767;DHT22;30487;48.716;9.272;2023-12-20T02:30:29;6.00;99.90
44767;DHT22;30487;48.716;9.272;2023-12-20T02:32:55;6.00;99.90
44767;DHT22;30487;48.716;9.272;2023-12-20T02:35:21;5.90;99.90
44767;DHT22;30487;48.716;9.272;2023-12-20T02:37:46;6.00;99.90
44767;DHT22;30487;48.716;9.272;2023-12-20T02:40:12;5.90;99.90
44767;DHT22;30487;48.716;9.272;2023-12-20T02:42:37;5.90;99.90
44767;DHT22;30487;48.716;9.272;2023-12-20T02:45:03;5.90;99.90
44767;DHT22;30487;48.716;9.272;2023-12-20T02:47:29;5.90;99.90
44767;DHT22;30487;48.716;9.272;2023-12-20T02:49:55;5.90;99.90
44767;DHT22;30487;48.716;9.272;2023-12-20T02:52:22;5.90;99.90
44767;DHT22;30487;48.716;9.272;2023-12-20T02:54:48;5.90;99.90
44767;DHT22;30487;48.716;9.272;2023-12-20T02:57:14;5.80;99.90
44767;DHT22;30487;48.716;9.272;2023-12-20T02:59:39;5.80;99.90
44767;DHT22;30487;48.716;9.272;2023-12-20T03:02:05;5.90;99.90
44767;DHT22;30487;48.716;9.272;2023-12-20T03:04:30;5.90;99.90
44767;DHT22;30487;48.716;9.272;2023-12-20T03:06:56;5.90;99.90
44767;DHT22;30487;48.716;9.272;2023-12-20T03:09:21;5.90;99.90
44767;DHT22;30487;48.716;9.272;2023-12-20T03:11:47;5.90;99.90
44767;DHT22;30487;48.716;9.272;2023-12-20T03:14:12;5.90;99.90
44767;DHT22;30487;48.716;9.272;2023-12-20T03:16:38;5.90;99.90
44767;DHT22;30487;48.716;9.272;2023-12-20T03:19:03;5.80;99.90
44767;DHT22;30487;48.716;9.272;2023-12-20T03:21:29;5.80;99.90
44767;DHT22;30487;48.716;9.272;2023-12-20T03:23:54;5.90;99.90
44767;DHT22;30487;48.716;9.272;2023-12-20T03:26:20;5.90;99.90
44767;DHT22;30487;48.716;9.272;2023-12-20T03:28:47;5.90;99.90
44767;DHT22;30487;48.716;9.272;2023-12-20T03:31:13;5.90;99.90
44767;DHT22;30487;48.716;9.272;2023-12-20T03:33:39;5.80;99.90
44767;DHT22;30487;48.716;9.272;2023-12-20T03:36:05;5.80;99.90
44767;DHT22;30487;48.716;9.272;2023-12-20T03:38:30;5.80;99.90
44767;DHT22;30487;48.716;9.272;2023-12-20T03:40:56;5.80;99.90
44767;DHT22;30487;48.716;9.272;2023-12-20T03:43:22;5.80;99.90
44767;DHT22;30487;48.716;9.272;2023-12-20T03:45:47;5.80;99.90
44767;DHT22;30487;48.716;9.272;2023-12-20T03:48:13;5.70;99.90
44767;DHT22;30487;48.716;9.272;2023-12-20T03:50:38;5.70;99.90
44767;DHT22;30487;48.716;9.272;2023-12-20T03:53:04;5.70;99.90
44767;DHT22;30487;48.716;9.272;2023-12-20T03:55:29;5.80;99.90
44767;DHT22;30487;48.716;9.272;2023-12-20T03:57:55;5.70;99.90
44767;DHT22;30487;48.716;9.272;2023-12-20T04:00:20;5.80;99.90
44767;DHT22;30487;48.716;9.272;2023-12-20T04:02:46;5.70;99.90
44767;DHT22;30487;48.716;9.272;2023-12-20T04:05:11;5.80;99.90
44767;DHT22;30487;48.716;9.272;2023-12-20T04:07:37;5.70;99.90
44767;DHT22;30487;48.716;9.272;2023-12-20T04:10:03;5.70;99.90
44767;DHT22;30487;48.716;9.272;2023-12-20T04:12:29;5.70;99.90
44767;DHT22;30487;48.716;9.272;2023-12-20T04:14:55;5.70;99.90
44767;DHT22;30487;48.716;9.272;2023-12-20T04:17:20;5.70;99.90
44767;DHT22;30487;48.716;9.272;2023-12-20T04:19:51;5.80;99.90
44767;DHT22;30487;48.716;9.272;2023-12-20T04:22:18;5.70;99.90
44767;DHT22;30487;48.716;9.272;2023-12-20T04:24:44;5.70;99.90
44767;DHT22;30487;48.716;9.272;2023-12-20T04:27:09;5.70;99.90
44767;DHT22;30487;48.716;9.272;2023-12-20T04:29:35;5.70;99.90
44767;DHT22;30487;48.716;9.272;2023-12-20T04:32:00;5.70;99.90
44767;DHT22;30487;48.716;9.272;2023-12-20T04:34:26;5.70;99.90
44767;DHT22;30487;48.716;9.272;2023-12-20T04:36:52;5.70;99.90
44767;DHT22;30487;48.716;9.272;2023-12-20T04:39:18;5.70;99.90
44767;DHT22;30487;48.716;9.272;2023-12-20T04:41:44;5.70;99.90
44767;DHT22;30487;48.716;9.272;2023-12-20T04:44:09;5.70;99.90
44767;DHT22;30487;48.716;9.272;2023-12-20T04:46:35;5.70;99.90
44767;DHT22;30487;48.716;9.272;2023-12-20T04:49:01;5.70;99.90
44767;DHT22;30487;48.716;9.272;2023-12-20T04:51:26;5.70;99.90
44767;DHT22;30487;48.716;9.272;2023-12-20T04:53:52;5.70;99.90
44767;DHT22;30487;48.716;9.272;2023-12-20T04:56:18;5.70;99.90
44767;DHT22;30487;48.716;9.272;2023-12-20T04:58:43;5.60;99.90
44767;DHT22;30487;48.716;9.272;2023-12-20T05:01:09;5.60;99.90
44767;DHT22;30487;48.716;9.272;2023-12-20T05:03:35;5.60;99.90
44767;DHT22;30487;48.716;9.272;2023-12-20T05:06:01;5.60;99.90
44767;DHT22;30487;48.716;9.272;2023-12-20T05:08:26;5.70;99.90
44767;DHT22;30487;48.716;9.272;2023-12-20T05:10:56;5.60;99.90
44767;DHT22;30487;48.716;9.272;2023-12-20T05:13:21;5.60;99.90
44767;DHT22;30487;48.716;9.272;2023-12-20T05:15:47;5.60;99.90
44767;DHT22;30487;48.716;9.272;2023-12-20T05:18:13;5.60;99.90
44767;DHT22;30487;48.716;9.272;2023-12-20T05:20:39;5.60;99.90
44767;DHT22;30487;48.716;9.272;2023-12-20T05:23:04;5.60;99.90
44767;DHT22;30487;48.716;9.272;2023-12-20T05:25:30;5.60;99.90
44767;DHT22;30487;48.716;9.272;2023-12-20T05:27:56;5.60;99.90
44767;DHT22;30487;48.716;9.272;2023-12-20T05:30:21;5.50;99.90
44767;DHT22;30487;48.716;9.272;2023-12-20T05:32:47;5.50;99.90
44767;DHT22;30487;48.716;9.272;2023-12-20T05:35:13;5.50;99.90
44767;DHT22;30487;48.716;9.272;2023-12-20T05:37:38;5.50;99.90
44767;DHT22;30487;48.716;9.272;2023-12-20T05:40:04;5.50;99.90
44767;DHT22;30487;48.716;9.272;2023-12-20T05:42:30;5.50;99.90
44767;DHT22;30487;48.716;9.272;2023-12-20T05:44:56;5.50;99.90
44767;DHT22;30487;48.716;9.272;2023-12-20T05:47:21;5.50;99.90
44767;DHT22;30487;48.716;9.272;2023-12-20T05:49:47;5.50;99.90
44767;DHT22;30487;48.716;9.272;2023-12-20T05:52:12;5.50;99.90
44767;DHT22;30487;48.716;9.272;2023-12-20T05:54:38;5.50;99.90
44767;DHT22;30487;48.716;9.272;2023-12-20T05:57:04;5.40;99.90
44767;DHT22;30487;48.716;9.272;2023-12-20T05:59:29;5.40;99.90
44767;DHT22;30487;48.716;9.272;2023-12-20T06:01:55;5.40;99.90
44767;DHT22;30487;48.716;9.272;2023-12-20T06:04:20;5.40;99.90
44767;DHT22;30487;48.716;9.272;2023-12-20T06:06:46;5.40;99.90
44767;DHT22;30487;48.716;9.272;2023-12-20T06:09:12;5.40;99.90
44767;DHT22;30487;48.716;9.272;2023-12-20T06:11:37;5.40;99.90
44767;DHT22;30487;48.716;9.272;2023-12-20T06:14:03;5.40;99.90
44767;DHT22;30487;48.716;9.272;2023-12-20T06:16:29;5.50;99.90
44767;DHT22;30487;48.716;9.272;2023-12-20T06:18:54;5.50;99.90
44767;DHT22;30487;48.716;9.272;2023-12-20T06:21:20;5.60;99.90
44767;DHT22;30487;48.716;9.272;2023-12-20T06:23:45;5.60;99.90
44767;DHT22;30487;48.716;9.272;2023-12-20T06:26:11;5.50;99.90
44767;DHT22;30487;48.716;9.272;2023-12-20T06:28:36;5.60;99.90
44767;DHT22;30487;48.716;9.272;2023-12-20T06:31:02;5.60;99.90
44767;DHT22;30487;48.716;9.272;2023-12-20T06:33:28;5.50;99.90
44767;DHT22;30487;48.716;9.272;2023-12-20T06:35:56;5.50;99.90
44767;DHT22;30487;48.716;9.272;2023-12-20T06:38:22;5.50;99.90
44767;DHT22;30487;48.716;9.272;2023-12-20T06:40:47;5.40;99.90
44767;DHT22;30487;48.716;9.272;2023-12-20T06:43:13;5.40;99.90
44767;DHT22;30487;48.716;9.272;2023-12-20T06:45:39;5.40;99.90
44767;DHT22;30487;48.716;9.272;2023-12-20T06:48:05;5.40;99.90
44767;DHT22;30487;48.716;9.272;2023-12-20T06:50:31;5.40;99.90
44767;DHT22;30487;48.716;9.272;2023-12-20T06:52:56;5.40;99.90
44767;DHT22;30487;48.716;9.272;2023-12-20T06:55:22;5.50;99.90
44767;DHT22;30487;48.716;9.272;2023-12-20T06:57:48;5.50;99.90
44767;DHT22;30487;48.716;9.272;2023-12-20T07:00:14;5.50;99.90
44767;DHT22;30487;48.716;9.272;2023-12-20T07:02:40;5.50;99.90
44767;DHT22;30487;48.716;9.272;2023-12-20T07:05:05;5.50;99.90
44767;DHT22;30487;48.716;9.272;2023-12-20T07:07:31;5.50;99.90
44767;DHT22;30487;48.716;9.272;2023-12-20T07:09:57;5.50;99.90
44767;DHT22;30487;48.716;9.272;2023-12-20T07:12:22;5.50;99.90
44767;DHT22;30487;48.716;9.272;2023-12-20T07:14:48;5.50;99.90
44767;DHT22;30487;48.716;9.272;2023-12-20T07:17:13;5.50;99.90
44767;DHT22;30487;48.716;9.272;2023-12-20T07:19:41;5.50;99.90
44767;DHT22;30487;48.716;9.272;2023-12-20T07:22:07;5.50;99.90
44767;DHT22;30487;48.716;9.272;2023-12-20T07:24:33;5.50;99.90
44767;DHT22;30487;48.716;9.272;2023-12-20T07:26:59;5.50;99.90
44767;DHT22;30487;48.716;9.272;2023-12-20T07:29:25;5.50;99.90
44767;DHT22;30487;48.716;9.272;2023-12-20T07:31:52;5.50;99.90
44767;DHT22;30487;48.716;9.272;2023-12-20T07:34:21;5.50;99.90
44767;DHT22;30487;48.716;9.272;2023-12-20T07:36:47;5.50;99.90
44767;DHT22;30487;48.716;9.272;2023-12-20T07:39:13;5.50;99.90
44767;DHT22;30487;48.716;9.272;2023-12-20T07:41:39;5.60;99.90
44767;DHT22;30487;48.716;9.272;2023-12-20T07:44:06;5.50;99.90
44767;DHT22;30487;48.716;9.272;2023-12-20T07:46:32;5.60;99.90
44767;DHT22;30487;48.716;9.272;2023-12-20T07:48:57;5.60;99.90
44767;DHT22;30487;48.716;9.272;2023-12-20T07:51:23;5.70;99.90
44767;DHT22;30487;48.716;9.272;2023-12-20T07:53:49;5.70;99.90
44767;DHT22;30487;48.716;9.272;2023-12-20T07:56:18;5.80;99.90
44767;DHT22;30487;48.716;9.272;2023-12-20T07:58:45;5.70;99.90
44767;DHT22;30487;48.716;9.272;2023-12-20T08:01:11;5.70;99.90
44767;DHT22;30487;48.716;9.272;2023-12-20T08:03:37;5.70;99.90
44767;DHT22;30487;48.716;9.272;2023-12-20T08:06:04;5.70;99.90
44767;DHT22;30487;48.716;9.272;2023-12-20T08:08:29;5.70;99.90
44767;DHT22;30487;48.716;9.272;2023-12-20T08:10:55;5.70;99.90
44767;DHT22;30487;48.716;9.272;2023-12-20T08:13:23;5.70;99.90
44767;DHT22;30487;48.716;9.272;2023-12-20T08:15:51;5.70;99.90
44767;DHT22;30487;48.716;9.272;2023-12-20T08:18:17;5.80;99.90
44767;DHT22;30487;48.716;9.272;2023-12-20T08:20:43;5.80;99.90
44767;DHT22;30487;48.716;9.272;2023-12-20T08:23:08;5.80;99.90
44767;DHT22;30487;48.716;9.272;2023-12-20T08:25:34;5.90;99.90
44767;DHT22;30487;48.716;9.272;2023-12-20T08:27:59;5.80;99.90
44767;DHT22;30487;48.716;9.272;2023-12-20T08:30:26;5.80;99.90
44767;DHT22;30487;48.716;9.272;2023-12-20T08:32:51;5.80;99.90
44767;DHT22;30487;48.716;9.272;2023-12-20T08:35:17;5.80;99.90
44767;DHT22;30487;48.716;9.272;2023-12-20T08:37:44;5.80;99.90
44767;DHT22;30487;48.716;9.272;2023-12-20T08:40:10;5.80;99.90
44767;DHT22;30487;48.716;9.272;2023-12-20T08:42:36;5.80;99.90
44767;DHT22;30487;48.716;9.272;2023-12-20T08:45:01;5.70;99.90
44767;DHT22;30487;48.716;9.272;2023-12-20T08:47:29;5.70;99.90
44767;DHT22;30487;48.716;9.272;2023-12-20T08:49:55;5.70;99.90
44767;DHT22;30487;48.716;9.272;2023-12-20T08:52:24;5.70;99.90
44767;DHT22;30487;48.716;9.272;2023-12-20T08:54:50;5.70;99.90
44767;DHT22;30487;48.716;9.272;2023-12-20T08:57:22;5.70;99.90
44767;DHT22;30487;48.716;9.272;2023-12-20T08:59:49;5.80;99.90
44767;DHT22;30487;48.716;9.272;2023-12-20T09:02:16;5.80;99.90
44767;DHT22;30487;48.716;9.272;2023-12-20T09:04:41;5.80;99.90
44767;DHT22;30487;48.716;9.272;2023-12-20T09:07:07;5.80;99.90
44767;DHT22;30487;48.716;9.272;2023-12-20T09:09:45;5.80;99.90
44767;DHT22;30487;48.716;9.272;2023-12-20T09:12:11;5.80;99.90
44767;DHT22;30487;48.716;9.272;2023-12-20T09:14:36;5.90;99.90
44767;DHT22;30487;48.716;9.272;2023-12-20T09:17:02;5.90;99.90
44767;DHT22;30487;48.716;9.272;2023-12-20T09:19:28;5.90;99.90
44767;DHT22;30487;48.716;9.272;2023-12-20T09:21:54;5.90;99.90
44767;DHT22;30487;48.716;9.272;2023-12-20T09:24:20;5.90;99.90
44767;DHT22;30487;48.716;9.272;2023-12-20T09:26:45;6.00;99.90
44767;DHT22;30487;48.716;9.272;2023-12-20T09:29:11;6.10;99.90
44767;DHT22;30487;48.716;9.272;2023-12-20T09:31:41;6.10;99.90
44767;DHT22;30487;48.716;9.272;2023-12-20T09:34:09;6.30;99.90
44767;DHT22;30487;48.716;9.272;2023-12-20T09:36:34;6.50;99.90
44767;DHT22;30487;48.716;9.272;2023-12-20T09:39:01;6.70;99.90
44767;DHT22;30487;48.716;9.272;2023-12-20T09:41:29;6.80;99.90
44767;DHT22;30487;48.716;9.272;2023-12-20T09:44:00;7.00;99.90
44767;DHT22;30487;48.716;9.272;2023-12-20T09:46:28;7.10;99.90
44767;DHT22;30487;48.716;9.272;2023-12-20T09:48:59;7.10;99.90
44767;DHT22;30487;48.716;9.272;2023-12-20T09:51:27;7.20;99.90
44767;DHT22;30487;48.716;9.272;2023-12-20T09:53:54;7.30;99.90
44767;DHT22;30487;48.716;9.272;2023-12-20T09:56:21;7.30;99.90
44767;DHT22;30487;48.716;9.272;2023-12-20T09:58:48;7.50;99.90
44767;DHT22;30487;48.716;9.272;2023-12-20T10:01:14;7.60;99.90
44767;DHT22;30487;48.716;9.272;2023-12-20T10:03:41;7.70;99.90
44767;DHT22;30487;48.716;9.272;2023-12-20T10:06:07;8.00;99.90
44767;DHT22;30487;48.716;9.272;2023-12-20T10:08:33;8.10;99.90
44767;DHT22;30487;48.716;9.272;2023-12-20T10:10:58;8.30;99.90
44767;DHT22;30487;48.716;9.272;2023-12-20T10:13:28;8.40;99.90
44767;DHT22;30487;48.716;9.272;2023-12-20T10:15:55;8.50;99.90
44767;DHT22;30487;48.716;9.272;2023-12-20T10:18:21;8.50;99.90
44767;DHT22;30487;48.716;9.272;2023-12-20T10:20:46;8.60;99.90
44767;DHT22;30487;48.716;9.272;2023-12-20T10:23:12;8.90;99.90
44767;DHT22;30487;48.716;9.272;2023-12-20T10:25:39;9.30;99.90
44767;DHT22;30487;48.716;9.272;2023-12-20T10:28:13;9.50;99.90
44767;DHT22;30487;48.716;9.272;2023-12-20T10:30:39;9.60;99.90
44767;DHT22;30487;48.716;9.272;2023-12-20T10:33:08;9.70;99.90
44767;DHT22;30487;48.716;9.272;2023-12-20T10:35:35;9.90;99.90
44767;DHT22;30487;48.716;9.272;2023-12-20T10:38:04;10.10;99.90
44767;DHT22;30487;48.716;9.272;2023-12-20T10:40:31;10.40;99.90
44767;DHT22;30487;48.716;9.272;2023-12-20T10:42:58;10.40;99.90
44767;DHT22;30487;48.716;9.272;2023-12-20T10:45:24;10.30;99.90
44767;DHT22;30487;48.716;9.272;2023-12-20T10:47:50;10.00;99.90
44767;DHT22;30487;48.716;9.272;2023-12-20T10:50:16;9.80;99.90
44767;DHT22;30487;48.716;9.272;2023-12-20T10:52:42;9.80;99.90
44767;DHT22;30487;48.716;9.272;2023-12-20T10:55:09;9.60;99.90
44767;DHT22;30487;48.716;9.272;2023-12-20T10:57:36;9.40;99.90
44767;DHT22;30487;48.716;9.272;2023-12-20T11:00:03;9.20;99.90
44767;DHT22;30487;48.716;9.272;2023-12-20T11:02:32;9.00;99.90
44767;DHT22;30487;48.716;9.272;2023-12-20T11:05:10;8.80;99.90
44767;DHT22;30487;48.716;9.272;2023-12-20T11:07:45;8.60;99.90
44767;DHT22;30487;48.716;9.272;2023-12-20T11:10:20;8.60;99.90
44767;DHT22;30487;48.716;9.272;2023-12-20T11:12:57;8.70;99.90
44767;DHT22;30487;48.716;9.272;2023-12-20T11:15:24;8.70;99.90
44767;DHT22;30487;48.716;9.272;2023-12-20T11:17:56;8.60;99.90
44767;DHT22;30487;48.716;9.272;2023-12-20T11:20:23;8.50;99.90
44767;DHT22;30487;48.716;9.272;2023-12-20T11:22:53;8.40;99.90
44767;DHT22;30487;48.716;9.272;2023-12-20T11:25:19;8.20;99.90
44767;DHT22;30487;48.716;9.272;2023-12-20T11:28:10;8.10;99.90
44767;DHT22;30487;48.716;9.272;2023-12-20T11:30:53;7.90;99.90
44767;DHT22;30487;48.716;9.272;2023-12-20T11:33:26;7.70;99.90
44767;DHT22;30487;48.716;9.272;2023-12-20T11:35:55;7.60;99.90
44767;DHT22;30487;48.716;9.272;2023-12-20T11:38:21;7.60;99.90
44767;DHT22;30487;48.716;9.272;2023-12-20T11:40:49;7.60;99.90
44767;DHT22;30487;48.716;9.272;2023-12-20T11:43:38;7.60;99.90
44767;DHT22;30487;48.716;9.272;2023-12-20T11:46:05;7.50;99.90
44767;DHT22;30487;48.716;9.272;2023-12-20T11:48:31;7.30;99.90
44767;DHT22;30487;48.716;9.272;2023-12-20T11:50:57;7.20;99.90
44767;DHT22;30487;48.716;9.272;2023-12-20T11:53:22;7.20;99.90
44767;DHT22;30487;48.716;9.272;2023-12-20T11:55:49;7.50;99.90
44767;DHT22;30487;48.716;9.272;2023-12-20T11:58:15;7.50;99.90
44767;DHT22;30487;48.716;9.272;2023-12-20T12:00:42;7.50;99.90
44767;DHT22;30487;48.716;9.272;2023-12-20T12:03:08;7.50;99.90
44767;DHT22;30487;48.716;9.272;2023-12-20T12:05:34;7.50;99.90
44767;DHT22;30487;48.716;9.272;2023-12-20T12:08:01;7.50;99.90
44767;DHT22;30487;48.716;9.272;2023-12-20T12:10:26;7.30;99.90
44767;DHT22;30487;48.716;9.272;2023-12-20T12:12:52;7.20;99.90
44767;DHT22;30487;48.716;9.272;2023-12-20T12:15:18;7.10;99.90
44767;DHT22;30487;48.716;9.272;2023-12-20T12:17:43;7.10;99.90
44767;DHT22;30487;48.716;9.272;2023-12-20T12:20:09;7.00;99.90
44767;DHT22;30487;48.716;9.272;2023-12-20T12:22:35;6.90;99.90
44767;DHT22;30487;48.716;9.272;2023-12-20T12:25:13;6.90;99.90
44767;DHT22;30487;48.716;9.272;2023-12-20T12:27:42;6.80;99.90
44767;DHT22;30487;48.716;9.272;2023-12-20T12:30:09;6.70;99.90
44767;DHT22;30487;48.716;9.272;2023-12-20T12:32:35;6.80;99.90
44767;DHT22;30487;48.716;9.272;2023-12-20T12:35:03;6.80;99.90
44767;DHT22;30487;48.716;9.272;2023-12-20T12:37:33;6.70;99.90
44767;DHT22;30487;48.716;9.272;2023-12-20T12:39:59;6.80;99.90
44767;DHT22;30487;48.716;9.272;2023-12-20T12:42:24;6.80;99.90
44767;DHT22;30487;48.716;9.272;2023-12-20T12:44:54;6.80;99.90
44767;DHT22;30487;48.716;9.272;2023-12-20T12:47:20;6.90;99.90
44767;DHT22;30487;48.716;9.272;2023-12-20T12:49:46;6.80;99.90
44767;DHT22;30487;48.716;9.272;2023-12-20T12:52:11;6.80;99.90
44767;DHT22;30487;48.716;9.272;2023-12-20T12:54:37;6.90;99.90
44767;DHT22;30487;48.716;9.272;2023-12-20T12:57:02;7.00;99.90
44767;DHT22;30487;48.716;9.272;2023-12-20T12:59:28;7.20;99.90
44767;DHT22;30487;48.716;9.272;2023-12-20T13:01:54;7.20;99.90
44767;DHT22;30487;48.716;9.272;2023-12-20T13:04:20;7.20;99.90
44767;DHT22;30487;48.716;9.272;2023-12-20T13:06:45;7.20;99.90
44767;DHT22;30487;48.716;9.272;2023-12-20T13:09:12;7.20;99.90
44767;DHT22;30487;48.716;9.272;2023-12-20T13:11:37;7.10;99.90
44767;DHT22;30487;48.716;9.272;2023-12-20T13:14:03;7.10;99.90
44767;DHT22;30487;48.716;9.272;2023-12-20T13:16:29;7.10;99.90
44767;DHT22;30487;48.716;9.272;2023-12-20T13:18:54;7.10;99.90
44767;DHT22;30487;48.716;9.272;2023-12-20T13:21:21;7.20;99.90
44767;DHT22;30487;48.716;9.272;2023-12-20T13:23:46;7.30;99.90
44767;DHT22;30487;48.716;9.272;2023-12-20T13:26:12;7.30;99.90
44767;DHT22;30487;48.716;9.272;2023-12-20T13:28:37;7.30;99.90
44767;DHT22;30487;48.716;9.272;2023-12-20T13:31:03;7.20;99.90
44767;DHT22;30487;48.716;9.272;2023-12-20T13:33:29;7.10;99.90
44767;DHT22;30487;48.716;9.272;2023-12-20T13:35:54;7.10;99.90
44767;DHT22;30487;48.716;9.272;2023-12-20T13:38:21;7.00;99.90
44767;DHT22;30487;48.716;9.272;2023-12-20T13:40:46;7.30;99.90
44767;DHT22;30487;48.716;9.272;2023-12-20T13:43:13;8.70;99.90
44767;DHT22;30487;48.716;9.272;2023-12-20T13:45:39;9.60;99.90
44767;DHT22;30487;48.716;9.272;2023-12-20T13:48:05;10.50;99.90
44767;DHT22;30487;48.716;9.272;2023-12-20T13:50:30;10.60;99.90
44767;DHT22;30487;48.716;9.272;2023-12-20T13:52:56;10.40;99.90
44767;DHT22;30487;48.716;9.272;2023-12-20T13:55:21;9.90;99.90
44767;DHT22;30487;48.716;9.272;2023-12-20T13:57:50;9.40;99.90
44767;DHT22;30487;48.716;9.272;2023-12-20T14:00:16;9.00;99.90
44767;DHT22;30487;48.716;9.272;2023-12-20T14:02:42;8.60;99.90
44767;DHT22;30487;48.716;9.272;2023-12-20T14:05:08;8.30;99.90
44767;DHT22;30487;48.716;9.272;2023-12-20T14:07:35;8.10;99.90
44767;DHT22;30487;48.716;9.272;2023-12-20T14:10:00;8.00;99.90
44767;DHT22;30487;48.716;9.272;2023-12-20T14:12:26;7.80;99.90
44767;DHT22;30487;48.716;9.272;2023-12-20T14:14:51;7.70;99.90
44767;DHT22;30487;48.716;9.272;2023-12-20T14:17:17;7.50;99.90
44767;DHT22;30487;48.716;9.272;2023-12-20T14:19:43;7.40;99.90
44767;DHT22;30487;48.716;9.272;2023-12-20T14:22:09;7.40;99.90
44767;DHT22;30487;48.716;9.272;2023-12-20T14:24:35;7.30;99.90
44767;DHT22;30487;48.716;9.272;2023-12-20T14:27:01;7.30;99.90
44767;DHT22;30487;48.716;9.272;2023-12-20T14:29:27;7.20;99.90
44767;DHT22;30487;48.716;9.272;2023-12-20T14:31:53;7.10;99.90
44767;DHT22;30487;48.716;9.272;2023-12-20T14:34:18;7.00;99.90
44767;DHT22;30487;48.716;9.272;2023-12-20T14:36:44;6.90;99.90
44767;DHT22;30487;48.716;9.272;2023-12-20T14:39:09;6.90;99.90
44767;DHT22;30487;48.716;9.272;2023-12-20T14:41:38;6.80;99.90
44767;DHT22;30487;48.716;9.272;2023-12-20T14:44:05;6.90;99.90
44767;DHT22;30487;48.716;9.272;2023-12-20T14:46:31;6.90;99.90
44767;DHT22;30487;48.716;9.272;2023-12-20T14:48:56;6.80;99.90
44767;DHT22;30487;48.716;9.272;2023-12-20T14:51:22;6.80;99.90
44767;DHT22;30487;48.716;9.272;2023-12-20T14:53:48;6.70;99.90
44767;DHT22;30487;48.716;9.272;2023-12-20T14:56:13;6.60;99.90
44767;DHT22;30487;48.716;9.272;2023-12-20T14:58:40;6.60;99.90
44767;DHT22;30487;48.716;9.272;2023-12-20T15:01:05;6.60;99.90
44767;DHT22;30487;48.716;9.272;2023-12-20T15:03:34;6.50;99.90
44767;DHT22;30487;48.716;9.272;2023-12-20T15:05:59;6.40;99.90
44767;DHT22;30487;48.716;9.272;2023-12-20T15:08:25;6.40;99.90
44767;DHT22;30487;48.716;9.272;2023-12-20T15:10:51;6.30;99.90
44767;DHT22;30487;48.716;9.272;2023-12-20T15:13:17;6.30;99.90
44767;DHT22;30487;48.716;9.272;2023-12-20T15:15:42;6.20;99.90
44767;DHT22;30487;48.716;9.272;2023-12-20T15:18:08;6.20;99.90
44767;DHT22;30487;48.716;9.272;2023-12-20T15:20:33;6.20;99.90
44767;DHT22;30487;48.716;9.272;2023-12-20T15:23:01;6.20;99.90
44767;DHT22;30487;48.716;9.272;2023-12-20T15:25:32;6.10;99.90
44767;DHT22;30487;48.716;9.272;2023-12-20T15:27:58;6.10;99.90
44767;DHT22;30487;48.716;9.272;2023-12-20T15:30:23;6.10;99.90
44767;DHT22;30487;48.716;9.272;2023-12-20T15:32:50;6.10;99.90
44767;DHT22;30487;48.716;9.272;2023-12-20T15:35:16;6.00;99.90
44767;DHT22;30487;48.716;9.272;2023-12-20T15:37:42;6.00;99.90
44767;DHT22;30487;48.716;9.272;2023-12-20T15:40:08;6.00;99.90